Time;durP1;ratioP1;P1;durP2;ratioP2;P2;SDS_P1;SDS_P2;PMS_P1;PMS_P2;Temp;Humidity;BMP_temperature;BMP_pressure;BME280_temperature;BME280_humidity;BME280_pressure;Samples;Min_cycle;Max_cycle;Signal;HPM_P1;HPM_P2
2022/08/04 04:00:35;;;;;;;3.03;2.72;;;17.90;99.90;;;;;;6019669;23;20025;-72
2022/08/04 04:03:40;;;;;;;3.95;3.20;;;17.90;99.90;;;;;;4956694;28;20106;-73
2022/08/04 04:06:08;;;;;;;3.42;2.90;;;17.90;99.90;;;;;;4971099;28;20517;-73
2022/08/04 04:08:40;;;;;;;6.20;4.32;;;17.90;99.90;;;;;;4957363;28;20043;-73
2022/08/04 04:11:29;;;;;;;5.93;4.60;;;18.00;99.90;;;;;;4956580;28;20055;-73
2022/08/04 04:14:05;;;;;;;7.57;2.63;;;18.10;99.90;;;;;;4957002;28;20132;-72
2022/08/04 04:16:57;;;;;;;6.20;2.53;;;18.10;99.90;;;;;;4957494;28;20420;-72
2022/08/04 04:19:58;;;;;;;5.57;2.60;;;18.20;99.90;;;;;;4955425;28;20564;-72
2022/08/04 04:22:28;;;;;;;4.35;2.70;;;18.20;99.90;;;;;;4956827;28;20042;-72
2022/08/04 04:25:02;;;;;;;6.95;2.80;;;18.20;99.90;;;;;;4956848;28;20864;-72
2022/08/04 04:27:54;;;;;;;4.00;2.75;;;18.30;99.90;;;;;;4957072;28;20039;-72
2022/08/04 04:30:22;;;;;;;4.10;2.90;;;18.30;99.90;;;;;;4955003;28;20052;-72
2022/08/04 04:33:13;;;;;;;5.00;3.03;;;18.30;99.90;;;;;;4955606;28;20043;-72
2022/08/04 04:36:02;;;;;;;4.40;2.78;;;18.20;99.90;;;;;;4956581;28;20493;-72
2022/08/04 04:38:56;;;;;;;3.42;2.97;;;18.30;99.90;;;;;;4957251;28;20086;-72
2022/08/04 04:41:27;;;;;;;3.20;2.60;;;18.30;99.90;;;;;;4956999;28;20027;-72
2022/08/04 04:44:13;;;;;;;3.00;2.70;;;18.30;99.90;;;;;;4956817;28;20043;-72
2022/08/04 04:47:03;;;;;;;8.40;3.00;;;18.30;99.90;;;;;;4956941;28;20450;-72
2022/08/04 04:49:53;;;;;;;4.20;2.65;;;18.30;99.90;;;;;;4956960;28;20044;-72
2022/08/04 04:52:21;;;;;;;4.85;2.92;;;18.30;99.90;;;;;;4956540;28;20044;-72
2022/08/04 04:54:52;;;;;;;5.75;2.63;;;18.40;99.90;;;;;;4958912;28;20039;-72
2022/08/04 04:57:20;;;;;;;4.22;2.30;;;18.40;99.90;;;;;;4960625;28;20086;-72
2022/08/04 05:00:01;;;;;;;3.10;2.70;;;18.50;99.90;;;;;;4956596;28;20109;-72
2022/08/04 05:03:01;;;;;;;2.97;2.50;;;18.50;99.90;;;;;;4959198;28;20039;-72
2022/08/04 05:05:39;;;;;;;3.97;2.78;;;18.60;99.90;;;;;;4956179;28;20039;-72
2022/08/04 05:08:26;;;;;;;5.28;3.00;;;18.70;99.90;;;;;;4956813;28;20063;-71
2022/08/04 05:11:20;;;;;;;5.88;2.75;;;18.80;99.90;;;;;;4956474;28;20453;-72
2022/08/04 05:13:53;;;;;;;4.22;3.10;;;18.90;99.90;;;;;;4958234;28;20096;-72
2022/08/04 05:16:31;;;;;;;6.75;3.40;;;18.90;99.90;;;;;;4956793;28;20043;-77
2022/08/04 05:19:18;;;;;;;4.15;2.92;;;19.00;99.90;;;;;;4957190;28;20043;-74
2022/08/04 05:21:50;;;;;;;4.03;2.85;;;19.10;99.90;;;;;;4956014;28;20032;-73
2022/08/04 05:24:19;;;;;;;7.20;3.38;;;19.20;99.90;;;;;;4956076;28;20027;-71
2022/08/04 05:26:49;;;;;;;5.45;2.90;;;19.30;99.90;;;;;;4954775;28;20486;-71
2022/08/04 05:29:45;;;;;;;6.38;3.03;;;19.40;99.90;;;;;;4956221;28;20119;-73
2022/08/04 05:32:14;;;;;;;5.13;3.40;;;19.50;99.90;;;;;;4956059;28;20052;-74
2022/08/04 05:34:44;;;;;;;4.05;2.70;;;19.70;99.90;;;;;;4956530;28;20035;-72
2022/08/04 05:37:16;;;;;;;6.15;3.00;;;19.80;99.90;;;;;;4956024;28;20035;-74
2022/08/04 05:39:52;;;;;;;6.68;3.25;;;19.80;99.90;;;;;;4956202;28;20039;-76
2022/08/04 05:42:18;;;;;;;8.40;4.70;;;19.80;99.90;;;;;;4956379;28;20036;-72
2022/08/04 05:44:45;;;;;;;11.85;5.93;;;20.00;99.90;;;;;;4956036;28;20028;-73
2022/08/04 05:47:12;;;;;;;10.15;6.60;;;20.10;99.90;;;;;;4954690;28;20371;-73
2022/08/04 05:49:40;;;;;;;8.13;5.50;;;20.20;99.60;;;;;;4955880;28;20777;-73
2022/08/04 05:52:06;;;;;;;6.53;4.65;;;20.30;99.50;;;;;;4955513;28;20039;-73
2022/08/04 05:54:34;;;;;;;10.90;4.07;;;20.40;99.20;;;;;;4956034;28;20829;-74
2022/08/04 05:57:03;;;;;;;6.70;3.72;;;20.40;98.80;;;;;;4955981;28;20039;-74
2022/08/04 05:59:31;;;;;;;5.53;3.60;;;20.50;98.80;;;;;;4954331;28;20043;-74
2022/08/04 06:01:59;;;;;;;8.68;3.30;;;20.60;98.40;;;;;;4955740;28;20031;-73
2022/08/04 06:04:41;;;;;;;8.30;2.78;;;20.70;98.30;;;;;;4955461;28;20059;-73
2022/08/04 06:07:08;;;;;;;6.97;2.70;;;20.80;97.90;;;;;;4956941;28;20490;-72
2022/08/04 06:09:33;;;;;;;6.20;2.92;;;20.90;97.70;;;;;;4957163;28;20537;-73
2022/08/04 06:12:02;;;;;;;4.30;2.35;;;21.00;97.40;;;;;;4959084;28;20043;-72
2022/08/04 06:14:32;;;;;;;5.72;2.47;;;21.10;96.90;;;;;;4957661;28;20068;-74
2022/08/04 06:17:00;;;;;;;4.90;2.58;;;21.20;96.60;;;;;;4959055;28;20497;-71
2022/08/04 06:19:27;;;;;;;5.93;2.78;;;21.30;96.30;;;;;;4958740;28;20091;-71
2022/08/04 06:21:55;;;;;;;5.93;2.63;;;21.40;96.10;;;;;;4958905;28;20035;-71
2022/08/04 06:24:25;;;;;;;5.70;2.67;;;21.50;95.80;;;;;;4957671;28;20082;-72
2022/08/04 06:26:51;;;;;;;4.22;2.22;;;21.60;95.40;;;;;;4958732;28;20040;-71
2022/08/04 06:29:36;;;;;;;3.28;2.25;;;21.70;95.10;;;;;;4958726;28;20031;-70
2022/08/04 06:32:23;;;;;;;4.25;2.25;;;21.80;94.60;;;;;;4957378;28;20047;-71
2022/08/04 06:34:52;;;;;;;4.90;2.40;;;21.90;94.10;;;;;;4957908;28;20023;-71
2022/08/04 06:37:19;;;;;;;4.32;2.38;;;22.10;94.00;;;;;;4957184;28;20035;-71
2022/08/04 06:39:45;;;;;;;6.00;2.35;;;22.20;93.80;;;;;;4958785;28;20107;-71
2022/08/04 06:42:11;;;;;;;6.95;2.30;;;22.30;93.80;;;;;;4958346;28;20036;-72
2022/08/04 06:44:39;;;;;;;6.65;2.40;;;22.40;93.80;;;;;;4958275;28;20036;-71
2022/08/04 06:47:05;;;;;;;5.90;2.67;;;22.50;93.40;;;;;;4958357;28;20040;-71
2022/08/04 06:49:32;;;;;;;3.83;2.47;;;22.70;93.20;;;;;;4958590;28;20039;-71
2022/08/04 06:52:01;;;;;;;5.20;2.72;;;22.80;93.00;;;;;;4958102;28;20050;-71
2022/08/04 06:54:26;;;;;;;6.35;2.40;;;22.90;92.40;;;;;;4958158;28;20024;-71
2022/08/04 06:56:54;;;;;;;4.90;2.47;;;23.10;92.80;;;;;;4958474;28;20043;-72
2022/08/04 06:59:21;;;;;;;4.22;2.50;;;23.20;92.30;;;;;;4958124;28;20593;-71
2022/08/04 07:01:48;;;;;;;5.03;2.35;;;23.40;92.20;;;;;;4957996;28;20490;-71
2022/08/04 07:04:14;;;;;;;5.13;2.40;;;23.60;91.70;;;;;;4958202;28;20036;-71
2022/08/04 07:06:40;;;;;;;4.53;2.40;;;23.70;91.10;;;;;;4958251;28;20099;-71
2022/08/04 07:09:07;;;;;;;3.53;2.50;;;23.90;90.90;;;;;;4958358;28;20055;-71
2022/08/04 07:11:33;;;;;;;5.47;2.20;;;24.10;90.90;;;;;;4958130;28;20482;-71
2022/08/04 07:13:59;;;;;;;6.55;2.00;;;24.20;90.20;;;;;;4958031;28;20123;-71
2022/08/04 07:16:27;;;;;;;5.00;2.08;;;24.40;90.10;;;;;;4958151;28;20039;-71
2022/08/04 07:18:52;;;;;;;6.07;1.98;;;24.60;89.60;;;;;;4957188;28;20036;-71
2022/08/04 07:21:21;;;;;;;4.05;1.70;;;24.80;88.40;;;;;;4957773;28;20027;-71
2022/08/04 07:23:47;;;;;;;3.53;2.00;;;25.00;87.40;;;;;;4957790;28;20133;-71
2022/08/04 07:26:15;;;;;;;6.32;2.08;;;25.20;87.20;;;;;;4957681;28;20172;-71
2022/08/04 07:28:41;;;;;;;4.32;1.83;;;25.40;86.00;;;;;;4957575;28;20031;-71
2022/08/04 07:31:10;;;;;;;3.80;2.05;;;25.80;84.00;;;;;;4956130;28;20044;-72
2022/08/04 07:33:37;;;;;;;5.35;2.08;;;25.90;84.10;;;;;;4957440;28;20035;-71
2022/08/04 07:36:03;;;;;;;4.07;2.10;;;26.10;83.50;;;;;;4957404;28;20516;-71
2022/08/04 07:38:28;;;;;;;4.72;2.10;;;26.30;83.40;;;;;;4957620;28;20040;-76
2022/08/04 07:40:54;;;;;;;2.63;2.00;;;26.50;81.70;;;;;;4956246;28;20048;-73
2022/08/04 07:43:21;;;;;;;4.28;2.28;;;26.90;81.00;;;;;;4956321;28;20039;-72
2022/08/04 07:45:47;;;;;;;3.63;2.15;;;27.20;79.30;;;;;;4957839;28;20039;-73
2022/08/04 07:48:14;;;;;;;5.70;1.90;;;27.30;78.80;;;;;;4958854;28;20097;-72
2022/08/04 07:50:43;;;;;;;4.32;2.10;;;27.50;77.80;;;;;;4958229;28;20110;-72
2022/08/04 07:53:11;;;;;;;3.15;2.00;;;27.70;77.10;;;;;;4957716;28;20489;-75
2022/08/04 07:55:36;;;;;;;4.97;2.13;;;28.10;77.50;;;;;;4957813;28;20036;-73
2022/08/04 07:58:02;;;;;;;4.20;2.40;;;28.30;75.50;;;;;;4957838;28;20036;-72
2022/08/04 08:00:28;;;;;;;3.58;2.03;;;28.60;73.40;;;;;;4957030;28;20120;-76
2022/08/04 08:02:55;;;;;;;3.42;1.75;;;28.90;72.30;;;;;;4957108;28;20114;-73
2022/08/04 08:05:21;;;;;;;4.63;1.88;;;29.10;71.30;;;;;;4957444;28;20036;-74
2022/08/04 08:07:47;;;;;;;3.20;2.10;;;29.40;71.30;;;;;;4956194;28;20039;-78
2022/08/04 08:10:14;;;;;;;5.40;1.70;;;29.60;67.40;;;;;;4955765;28;20035;-72
2022/08/04 08:12:41;;;;;;;5.60;2.10;;;29.90;67.70;;;;;;4957329;28;20414;-75
2022/08/04 08:15:08;;;;;;;3.88;2.05;;;30.10;67.80;;;;;;4955751;28;20039;-72
2022/08/04 08:17:34;;;;;;;2.22;1.90;;;30.30;66.40;;;;;;4957021;28;20040;-75
2022/08/04 08:20:00;;;;;;;2.70;1.60;;;30.60;64.70;;;;;;4957133;28;20031;-77
2022/08/04 08:22:27;;;;;;;4.30;1.60;;;30.80;63.70;;;;;;4957164;28;20040;-77
2022/08/04 08:24:53;;;;;;;4.80;1.60;;;31.00;64.50;;;;;;4956986;28;20119;-76
2022/08/04 08:27:19;;;;;;;5.07;1.55;;;31.20;61.40;;;;;;4957841;28;20438;-77
2022/08/04 08:29:44;;;;;;;1.70;1.50;;;31.30;62.10;;;;;;4956901;28;20032;-74
2022/08/04 08:32:12;;;;;;;3.45;1.60;;;31.40;60.30;;;;;;4956530;28;20063;-74
2022/08/04 08:34:39;;;;;;;3.35;1.30;;;31.70;59.70;;;;;;4956817;28;20039;-74
2022/08/04 08:37:11;;;;;;;2.92;1.50;;;31.90;58.90;;;;;;4956170;28;20052;-74
2022/08/04 08:39:41;;;;;;;5.75;3.30;;;32.10;59.00;;;;;;4956634;28;20106;-74
2022/08/04 08:42:30;;;;;;;3.58;1.80;;;32.20;59.20;;;;;;4956673;28;20071;-74
2022/08/04 08:45:36;;;;;;;7.60;4.63;;;32.50;58.00;;;;;;4955375;28;20117;-74
2022/08/04 08:48:21;;;;;;;1.92;1.30;;;32.50;56.80;;;;;;4954207;28;20078;-73
2022/08/04 08:51:18;;;;;;;1.77;1.63;;;32.50;56.10;;;;;;4954550;28;20057;-78
2022/08/04 08:54:09;;;;;;;2.08;1.52;;;32.70;56.40;;;;;;4956215;28;20541;-73
2022/08/04 08:57:02;;;;;;;3.30;1.42;;;32.70;55.80;;;;;;4956641;28;20040;-73
2022/08/04 08:59:36;;;;;;;3.35;1.60;;;32.60;55.90;;;;;;4956531;28;20027;-73
2022/08/04 09:02:36;;;;;;;2.70;1.50;;;33.00;55.40;;;;;;4954837;28;20098;-73
2022/08/04 09:05:22;;;;;;;1.90;1.70;;;33.30;53.90;;;;;;4955867;28;20473;-74
2022/08/04 09:08:21;;;;;;;1.73;1.60;;;33.60;53.80;;;;;;4956555;28;20040;-73
2022/08/04 09:11:06;;;;;;;3.53;1.67;;;33.70;53.50;;;;;;4956662;28;20035;-76
2022/08/04 09:13:40;;;;;;;1.90;1.67;;;34.00;53.60;;;;;;4956462;28;20036;-71
2022/08/04 09:16:18;;;;;;;3.55;1.75;;;33.90;53.20;;;;;;4956449;28;20071;-72
2022/08/04 09:19:22;;;;;;;2.60;1.60;;;34.10;52.80;;;;;;4956218;28;20522;-76
2022/08/04 09:21:56;;;;;;;6.60;1.67;;;34.30;52.60;;;;;;4956312;28;20035;-72
2022/08/04 09:24:31;;;;;;;2.75;1.48;;;34.40;50.80;;;;;;4952361;28;20106;-76
2022/08/04 09:27:04;;;;;;;1.80;1.60;;;34.40;51.50;;;;;;4956659;28;20031;-71
2022/08/04 09:29:33;;;;;;;3.53;2.03;;;34.50;51.30;;;;;;4956026;28;20038;-71
2022/08/04 09:32:19;;;;;;;4.20;1.77;;;34.60;50.70;;;;;;4955891;28;20893;-71
2022/08/04 09:35:11;;;;;;;1.85;1.50;;;34.60;50.60;;;;;;4956038;28;20035;-71
2022/08/04 09:37:44;;;;;;;2.78;1.58;;;34.70;50.10;;;;;;4956463;28;20477;-72
2022/08/04 09:40:23;;;;;;;4.85;1.58;;;34.70;50.30;;;;;;4956183;28;20040;-71
2022/08/04 09:43:07;;;;;;;3.55;1.52;;;34.80;51.10;;;;;;4957009;28;20409;-71
2022/08/04 09:45:35;;;;;;;4.15;1.90;;;34.80;50.90;;;;;;4959538;28;20146;-71
2022/08/04 09:48:43;;;;;;;5.22;1.67;;;34.90;51.20;;;;;;4959483;28;20039;-72
2022/08/04 09:51:45;;;;;;;4.05;1.50;;;35.30;51.10;;;;;;4975541;28;20043;-71
2022/08/04 09:54:20;;;;;;;3.22;1.73;;;35.50;50.20;;;;;;4959444;28;20035;-71
2022/08/04 09:57:13;;;;;;;4.00;1.67;;;35.50;49.70;;;;;;4959616;28;20032;-72
2022/08/04 09:59:47;;;;;;;2.63;1.55;;;35.70;50.00;;;;;;4958372;28;20529;-72
2022/08/04 10:02:16;;;;;;;3.08;1.63;;;35.80;50.40;;;;;;4958727;28;20529;-71
2022/08/04 10:04:43;;;;;;;2.30;1.50;;;35.90;50.40;;;;;;4956006;28;20466;-72
2022/08/04 10:07:15;;;;;;;4.47;1.98;;;35.90;49.70;;;;;;4951410;28;20059;-72
2022/08/04 10:10:29;;;;;;;2.45;1.90;;;36.10;49.40;;;;;;4959132;28;20086;-72
2022/08/04 10:12:54;;;;;;;2.90;1.90;;;36.20;51.20;;;;;;4959190;28;20086;-72
2022/08/04 10:15:26;;;;;;;3.00;1.67;;;36.10;50.00;;;;;;4959253;28;20066;-72
2022/08/04 10:18:27;;;;;;;2.92;1.90;;;36.10;48.40;;;;;;4958875;28;20179;-71
2022/08/04 10:21:05;;;;;;;3.40;2.15;;;36.10;48.40;;;;;;4959152;28;20066;-72
2022/08/04 10:24:06;;;;;;;3.50;1.73;;;36.10;49.30;;;;;;4959115;28;20039;-79
2022/08/04 10:26:58;;;;;;;4.20;2.05;;;35.90;50.20;;;;;;4960284;28;20028;-72
2022/08/04 10:29:40;;;;;;;5.53;1.90;;;36.00;49.80;;;;;;4946222;28;20040;-72
2022/08/04 10:32:33;;;;;;;1.92;1.83;;;36.40;49.90;;;;;;4939533;29;20081;-71
2022/08/04 10:35:14;;;;;;;4.18;1.98;;;36.50;48.20;;;;;;4940382;28;20044;-73
2022/08/04 10:38:05;;;;;;;4.80;2.08;;;36.70;48.20;;;;;;4955158;28;20047;-71
2022/08/04 10:40:47;;;;;;;5.53;1.83;;;36.90;47.80;;;;;;4958674;28;20498;-72
2022/08/04 10:43:24;;;;;;;3.55;2.05;;;36.80;48.70;;;;;;4958594;28;20094;-71
2022/08/04 10:46:09;;;;;;;4.95;2.10;;;36.70;48.00;;;;;;4958580;28;20099;-71
2022/08/04 10:48:55;;;;;;;4.57;2.10;;;36.80;49.00;;;;;;4958838;28;20042;-72
2022/08/04 10:51:37;;;;;;;4.60;2.40;;;37.00;47.30;;;;;;4958215;28;20044;-70
2022/08/04 10:54:06;;;;;;;5.38;1.88;;;37.10;46.90;;;;;;4958155;28;20124;-76
2022/08/04 10:56:40;;;;;;;5.93;1.98;;;37.20;47.10;;;;;;4958398;28;20466;-71
2022/08/04 10:59:11;;;;;;;1.92;1.83;;;36.90;47.10;;;;;;4958491;28;20036;-72
2022/08/04 11:01:45;;;;;;;4.75;2.08;;;36.90;47.10;;;;;;4956529;28;20047;-71
2022/08/04 11:04:25;;;;;;;3.75;2.47;;;37.10;46.40;;;;;;4955579;28;20039;-71
2022/08/04 11:06:51;;;;;;;4.53;2.13;;;37.00;46.30;;;;;;4949572;28;20131;-71
2022/08/04 11:09:17;;;;;;;3.92;1.80;;;37.10;46.80;;;;;;4949213;28;20123;-71
2022/08/04 11:11:55;;;;;;;3.50;2.00;;;37.30;45.90;;;;;;4958103;28;20075;-71
2022/08/04 11:14:32;;;;;;;2.58;1.90;;;37.60;44.50;;;;;;4958030;28;20828;-71
2022/08/04 11:17:05;;;;;;;2.63;1.83;;;36.90;45.50;;;;;;4958272;28;20039;-71
2022/08/04 11:19:45;;;;;;;2.47;1.90;;;36.80;46.70;;;;;;4955123;28;20592;-71
2022/08/04 11:22:22;;;;;;;3.70;2.00;;;37.10;45.20;;;;;;4957836;28;20028;-71
2022/08/04 11:25:21;;;;;;;6.55;2.03;;;37.50;45.00;;;;;;4947008;28;20046;-71
2022/08/04 11:27:49;;;;;;;3.20;1.95;;;37.80;44.40;;;;;;4948136;28;20044;-72
2022/08/04 11:30:16;;;;;;;2.63;2.00;;;38.10;44.00;;;;;;4946521;28;20443;-71
2022/08/04 11:33:13;;;;;;;3.28;2.03;;;38.20;43.70;;;;;;4948114;28;20040;-72
2022/08/04 11:35:54;;;;;;;3.22;2.05;;;38.40;43.50;;;;;;4946913;28;20047;-72
2022/08/04 11:38:26;;;;;;;4.13;1.83;;;38.50;43.80;;;;;;4948688;28;20048;-71
2022/08/04 11:40:57;;;;;;;3.05;2.00;;;38.30;42.70;;;;;;4956603;28;20489;-73
2022/08/04 11:43:39;;;;;;;1.90;1.80;;;38.20;44.70;;;;;;4957753;28;20064;-72
2022/08/04 11:46:17;;;;;;;2.30;1.80;;;38.30;43.10;;;;;;4957784;28;20473;-73
2022/08/04 11:49:27;;;;;;;2.45;1.90;;;38.50;42.80;;;;;;4957676;28;20040;-71
2022/08/04 11:51:55;;;;;;;3.28;2.00;;;38.10;43.30;;;;;;4956878;28;20576;-74
2022/08/04 11:54:21;;;;;;;3.08;1.90;;;38.30;43.00;;;;;;4957378;28;20035;-72
2022/08/04 11:56:47;;;;;;;3.25;1.90;;;38.60;42.40;;;;;;4957617;28;20496;-73
2022/08/04 11:59:13;;;;;;;2.58;1.95;;;38.80;44.10;;;;;;4956089;28;20043;-74
2022/08/04 12:01:57;;;;;;;3.50;1.95;;;39.20;43.70;;;;;;4957074;28;20035;-74
2022/08/04 12:04:28;;;;;;;2.03;1.70;;;39.50;42.50;;;;;;4957238;28;20032;-73
2022/08/04 12:07:02;;;;;;;4.13;1.80;;;39.70;41.00;;;;;;4956793;28;20545;-73
2022/08/04 12:09:45;;;;;;;2.47;1.70;;;39.90;40.70;;;;;;4957582;28;20757;-74
2022/08/04 12:12:26;;;;;;;3.88;1.92;;;39.90;40.50;;;;;;4956956;28;20039;-73
2022/08/04 12:14:58;;;;;;;3.25;1.80;;;39.50;40.30;;;;;;4957167;28;20474;-72
2022/08/04 12:17:45;;;;;;;3.25;1.80;;;39.30;41.20;;;;;;4957335;28;20453;-73
2022/08/04 12:20:19;;;;;;;6.30;1.90;;;39.30;40.90;;;;;;4955713;28;20043;-73
2022/08/04 12:22:49;;;;;;;2.63;2.08;;;39.60;41.50;;;;;;4957130;28;20485;-72
2022/08/04 12:25:22;;;;;;;2.92;1.88;;;39.50;42.00;;;;;;4956882;28;20039;-73
2022/08/04 12:28:01;;;;;;;4.80;2.13;;;39.80;42.00;;;;;;4956952;28;20119;-72
2022/08/04 12:30:33;;;;;;;2.50;1.90;;;39.70;41.80;;;;;;4956823;28;20043;-73
2022/08/04 12:33:02;;;;;;;2.40;1.83;;;39.70;41.60;;;;;;4956888;28;20044;-73
2022/08/04 12:35:55;;;;;;;3.08;1.88;;;40.10;41.90;;;;;;4956656;28;20115;-74
2022/08/04 12:38:23;;;;;;;2.42;1.75;;;40.40;40.80;;;;;;4952918;28;20454;-72
2022/08/04 12:40:52;;;;;;;3.33;1.95;;;40.70;41.50;;;;;;4943072;28;20119;-72
2022/08/04 12:43:40;;;;;;;5.47;2.00;;;40.90;40.80;;;;;;4937789;28;20095;-72
2022/08/04 12:46:09;;;;;;;2.13;2.00;;;40.70;40.00;;;;;;4936060;28;20038;-72
2022/08/04 12:48:37;;;;;;;2.22;1.90;;;40.70;39.60;;;;;;4937450;28;20040;-71
2022/08/04 12:51:06;;;;;;;3.50;2.05;;;40.30;40.00;;;;;;4937191;28;20044;-71
2022/08/04 12:53:36;;;;;;;2.22;1.80;;;40.40;40.40;;;;;;4937391;28;20084;-72
2022/08/04 12:56:03;;;;;;;3.28;2.25;;;40.30;40.60;;;;;;4935883;28;20145;-72
2022/08/04 12:58:35;;;;;;;2.13;1.92;;;40.20;40.60;;;;;;4937511;29;20067;-71
2022/08/04 13:01:22;;;;;;;2.47;2.28;;;40.40;40.20;;;;;;4937283;29;20147;-72
2022/08/04 13:03:56;;;;;;;2.90;1.80;;;40.60;39.30;;;;;;4936152;29;20533;-72
2022/08/04 13:06:34;;;;;;;5.47;2.10;;;40.20;39.70;;;;;;4937220;28;20047;-71
2022/08/04 13:09:09;;;;;;;1.90;1.70;;;39.90;40.70;;;;;;4937687;29;20032;-72
2022/08/04 13:11:40;;;;;;;2.97;2.08;;;39.90;39.80;;;;;;4936866;28;20046;-72
2022/08/04 13:14:08;;;;;;;2.42;2.00;;;39.80;40.10;;;;;;4936880;28;20043;-72
2022/08/04 13:16:34;;;;;;;5.05;1.85;;;39.90;41.20;;;;;;4936581;28;20103;-72
2022/08/04 13:19:01;;;;;;;2.67;1.90;;;39.90;42.60;;;;;;4936814;28;20084;-72
2022/08/04 13:21:29;;;;;;;2.72;2.17;;;40.00;41.40;;;;;;4946382;28;21360;-73
2022/08/04 13:24:00;;;;;;;3.78;2.28;;;39.80;39.50;;;;;;4950660;28;20524;-70
2022/08/04 13:26:26;;;;;;;4.15;2.05;;;40.20;40.50;;;;;;4956296;28;20032;-72
2022/08/04 13:28:53;;;;;;;2.30;2.10;;;40.50;40.80;;;;;;4957275;28;20031;-80
2022/08/04 13:31:25;;;;;;;2.42;2.00;;;40.90;40.50;;;;;;4955091;28;20079;-76
2022/08/04 13:33:53;;;;;;;2.03;1.83;;;40.90;39.20;;;;;;4956242;28;20039;-72
2022/08/04 13:36:24;;;;;;;2.05;1.90;;;40.90;39.30;;;;;;4955236;28;20110;-75
2022/08/04 13:38:54;;;;;;;2.95;2.22;;;41.20;39.00;;;;;;4954427;28;20469;-73
2022/08/04 13:41:21;;;;;;;3.28;2.00;;;42.20;38.40;;;;;;4955755;28;20043;-73
2022/08/04 13:43:50;;;;;;;4.03;2.00;;;42.80;38.60;;;;;;4956234;28;20032;-76
2022/08/04 13:46:23;;;;;;;4.82;2.10;;;43.20;37.10;;;;;;4954237;28;20485;-76
2022/08/04 13:48:49;;;;;;;2.83;2.10;;;42.80;37.40;;;;;;4956415;28;20438;-74
2022/08/04 13:51:20;;;;;;;4.50;2.42;;;43.10;37.50;;;;;;4955949;28;20047;-75
2022/08/04 13:53:58;;;;;;;3.88;2.40;;;43.60;36.90;;;;;;4956561;28;20034;-74
2022/08/04 13:56:30;;;;;;;3.00;2.20;;;43.70;36.00;;;;;;4956211;28;20036;-74
2022/08/04 13:58:59;;;;;;;2.20;2.00;;;43.30;36.10;;;;;;4956615;28;20540;-77
2022/08/04 14:01:27;;;;;;;3.03;2.05;;;43.90;35.40;;;;;;4955432;28;20142;-72
2022/08/04 14:04:08;;;;;;;3.75;2.10;;;44.60;34.90;;;;;;4955919;28;20027;-73
2022/08/04 14:06:43;;;;;;;4.57;2.10;;;44.80;34.40;;;;;;4956224;28;20062;-73
2022/08/04 14:09:14;;;;;;;2.50;2.30;;;44.70;35.10;;;;;;4955960;28;20095;-71
2022/08/04 14:11:45;;;;;;;2.90;2.53;;;45.40;34.70;;;;;;4955714;28;20044;-71
2022/08/04 14:14:29;;;;;;;4.47;2.40;;;45.90;33.40;;;;;;4955497;28;20578;-71
2022/08/04 14:17:11;;;;;;;2.67;2.47;;;46.70;32.40;;;;;;4954561;28;20055;-70
2022/08/04 14:19:45;;;;;;;2.72;2.40;;;47.20;32.40;;;;;;4956350;28;20048;-70
2022/08/04 14:22:33;;;;;;;2.95;2.47;;;47.50;32.20;;;;;;4964937;28;20118;-72
2022/08/04 14:25:02;;;;;;;5.82;2.40;;;46.60;33.40;;;;;;4968650;28;20037;-70
2022/08/04 14:27:29;;;;;;;3.17;2.38;;;47.60;31.10;;;;;;4974952;28;20521;-71
2022/08/04 14:29:54;;;;;;;3.25;2.78;;;47.10;34.50;;;;;;4976869;28;20039;-71
2022/08/04 14:32:21;;;;;;;3.75;2.42;;;47.30;31.70;;;;;;4978172;28;20043;-71
2022/08/04 14:34:46;;;;;;;3.78;2.40;;;47.40;32.20;;;;;;4978257;28;20041;-73
2022/08/04 14:37:14;;;;;;;3.33;2.58;;;47.60;32.40;;;;;;4978229;28;20089;-76
2022/08/04 14:39:54;;;;;;;2.60;2.50;;;48.50;30.90;;;;;;4978431;28;20811;-71
2022/08/04 14:42:42;;;;;;;4.40;2.70;;;48.60;31.10;;;;;;4978093;28;20465;-71
2022/08/04 14:45:08;;;;;;;2.80;2.60;;;47.30;31.10;;;;;;4977762;28;20032;-75
2022/08/04 14:47:45;;;;;;;2.90;2.55;;;47.40;32.20;;;;;;4977565;28;20071;-73
2022/08/04 14:50:12;;;;;;;2.58;2.40;;;48.10;31.80;;;;;;4967147;28;20103;-75
2022/08/04 14:52:39;;;;;;;3.15;2.85;;;47.70;30.10;;;;;;4958610;28;20048;-73
2022/08/04 14:55:15;;;;;;;3.10;2.90;;;48.40;30.80;;;;;;4957007;28;20047;-74
2022/08/04 14:57:40;;;;;;;4.10;3.13;;;49.40;30.40;;;;;;4958336;28;20039;-74
2022/08/04 15:00:07;;;;;;;3.85;3.15;;;49.80;30.20;;;;;;4958205;28;20042;-73
2022/08/04 15:02:34;;;;;;;3.78;3.10;;;49.50;28.90;;;;;;4957674;28;20091;-73
2022/08/04 15:05:01;;;;;;;2.95;2.70;;;48.90;29.60;;;;;;4958148;28;20047;-73
2022/08/04 15:07:28;;;;;;;2.97;2.75;;;48.40;30.30;;;;;;4958066;28;20160;-76
2022/08/04 15:09:54;;;;;;;3.65;3.20;;;48.40;29.80;;;;;;4959216;28;20119;-72
2022/08/04 15:12:20;;;;;;;3.75;3.45;;;49.70;29.20;;;;;;4959666;28;20050;-76
2022/08/04 15:14:45;;;;;;;9.75;3.45;;;50.20;29.50;;;;;;4959187;28;20119;-75
2022/08/04 15:17:11;;;;;;;4.40;3.20;;;50.50;29.00;;;;;;4957426;28;20438;-72
2022/08/04 15:19:37;;;;;;;3.60;3.17;;;49.80;29.80;;;;;;4947810;28;20091;-77
2022/08/04 15:22:04;;;;;;;4.70;3.40;;;49.20;29.70;;;;;;4960335;28;20100;-75
2022/08/04 15:24:29;;;;;;;4.90;3.40;;;49.70;28.50;;;;;;4959811;28;20035;-75
2022/08/04 15:26:57;;;;;;;4.00;3.60;;;51.00;29.10;;;;;;4957921;28;20039;-77
2022/08/04 15:29:29;;;;;;;4.65;3.67;;;51.20;28.80;;;;;;4948351;28;20035;-72
2022/08/04 15:31:56;;;;;;;7.50;3.35;;;50.50;28.60;;;;;;4958073;28;20043;-73
2022/08/04 15:34:22;;;;;;;5.03;3.50;;;49.20;28.50;;;;;;4958154;28;20058;-73
2022/08/04 15:36:56;;;;;;;4.68;3.65;;;49.90;28.60;;;;;;4953220;28;20058;-73
2022/08/04 15:39:43;;;;;;;3.50;3.20;;;50.10;28.40;;;;;;4947217;28;20039;-72
2022/08/04 15:42:29;;;;;;;3.47;3.17;;;49.70;28.20;;;;;;4958403;28;20055;-73
2022/08/04 15:45:09;;;;;;;3.80;3.35;;;50.30;28.20;;;;;;4957746;28;20490;-73
2022/08/04 15:47:35;;;;;;;3.58;3.17;;;50.20;28.50;;;;;;4946660;28;20044;-73
2022/08/04 15:50:03;;;;;;;3.30;3.10;;;49.90;28.90;;;;;;4938454;28;20035;-73
2022/08/04 15:52:49;;;;;;;3.92;3.55;;;49.50;28.70;;;;;;4951857;28;20043;-73
2022/08/04 15:55:34;;;;;;;3.40;3.10;;;49.70;28.80;;;;;;4957154;28;20036;-74
2022/08/04 15:58:02;;;;;;;3.90;3.40;;;50.20;29.30;;;;;;4956905;28;20087;-73
2022/08/04 16:00:48;;;;;;;3.38;2.97;;;50.10;28.50;;;;;;4953656;28;20038;-73
2022/08/04 16:03:32;;;;;;;3.33;3.10;;;49.60;30.40;;;;;;4938199;28;20569;-74
2022/08/04 16:05:58;;;;;;;6.43;3.38;;;49.00;29.90;;;;;;4938229;28;20036;-74
2022/08/04 16:08:24;;;;;;;3.28;2.80;;;48.90;29.80;;;;;;4955001;28;20118;-73
2022/08/04 16:10:50;;;;;;;3.15;2.55;;;47.70;30.50;;;;;;4944128;28;20068;-73
2022/08/04 16:13:21;;;;;;;3.33;2.78;;;47.90;31.60;;;;;;4938033;28;20036;-73
2022/08/04 16:15:50;;;;;;;5.40;2.65;;;48.50;29.70;;;;;;4938213;28;20466;-74
2022/08/04 16:18:25;;;;;;;2.95;2.75;;;48.90;30.70;;;;;;4953473;28;20506;-74
2022/08/04 16:20:55;;;;;;;2.72;2.50;;;49.10;29.50;;;;;;4951811;28;20534;-73
2022/08/04 16:23:26;;;;;;;5.40;2.70;;;48.70;30.00;;;;;;4937682;28;20036;-73
2022/08/04 16:25:52;;;;;;;3.55;2.95;;;49.10;29.00;;;;;;4937709;28;20032;-73
2022/08/04 16:28:37;;;;;;;2.95;2.72;;;48.80;31.30;;;;;;4938315;28;20040;-73
2022/08/04 16:31:05;;;;;;;2.85;2.53;;;48.90;30.40;;;;;;4948785;28;20032;-74
2022/08/04 16:33:32;;;;;;;3.25;2.80;;;48.60;30.00;;;;;;4957294;28;20035;-74
2022/08/04 16:35:58;;;;;;;3.00;2.80;;;48.10;31.00;;;;;;4958085;28;20039;-79
2022/08/04 16:38:24;;;;;;;5.05;2.88;;;47.30;32.00;;;;;;4940196;28;20051;-73
2022/08/04 16:40:57;;;;;;;4.93;2.80;;;46.80;30.80;;;;;;4938064;29;20103;-73
2022/08/04 16:43:28;;;;;;;3.08;2.58;;;45.70;34.20;;;;;;4937910;29;20032;-73
2022/08/04 16:45:59;;;;;;;4.03;2.67;;;44.50;33.60;;;;;;4937924;28;20111;-74
2022/08/04 16:48:33;;;;;;;3.15;2.60;;;43.20;33.60;;;;;;4937848;28;20028;-72
2022/08/04 16:51:06;;;;;;;3.25;2.20;;;42.10;35.60;;;;;;4936372;28;20028;-72
2022/08/04 16:53:51;;;;;;;4.78;2.63;;;40.80;42.70;;;;;;4938053;29;20036;-73
2022/08/04 16:56:17;;;;;;;3.88;2.28;;;40.10;41.00;;;;;;4937557;28;20056;-71
2022/08/04 16:58:46;;;;;;;2.83;2.30;;;39.50;39.00;;;;;;4937833;28;20064;-73
2022/08/04 17:01:15;;;;;;;2.72;2.50;;;39.10;41.30;;;;;;4937182;29;20048;-77
2022/08/04 17:03:47;;;;;;;2.78;2.20;;;38.60;42.20;;;;;;4939558;29;20028;-76
2022/08/04 17:06:13;;;;;;;2.47;2.15;;;38.30;40.40;;;;;;4939935;28;20044;-75
2022/08/04 17:08:48;;;;;;;4.10;2.40;;;38.10;42.30;;;;;;4953480;28;20040;-80
2022/08/04 17:11:15;;;;;;;3.40;2.80;;;37.90;40.90;;;;;;4957976;28;20036;-76
2022/08/04 17:13:44;;;;;;;5.10;2.50;;;37.90;40.40;;;;;;4959445;28;20088;-73
2022/08/04 17:16:16;;;;;;;2.63;2.42;;;37.60;41.30;;;;;;4954969;28;20032;-74
2022/08/04 17:18:49;;;;;;;3.42;2.35;;;37.30;44.60;;;;;;4951972;28;20477;-74
2022/08/04 17:21:18;;;;;;;3.45;2.30;;;37.00;44.60;;;;;;4955637;28;20553;-74